sensor_id;sensor_type;location;lat;lon;timestamp;P1;durP1;ratioP1;P2;durP2;ratioP2
2462;SDS011;1243;54.298;10.172;2023-07-29T00:01:59;3.43;;;3.23;;
2462;SDS011;1243;54.298;10.172;2023-07-29T00:04:25;4.30;;;3.90;;
2462;SDS011;1243;54.298;10.172;2023-07-29T00:06:50;4.27;;;3.97;;
2462;SDS011;1243;54.298;10.172;2023-07-29T00:09:16;4.20;;;3.80;;
2462;SDS011;1243;54.298;10.172;2023-07-29T00:11:42;5.07;;;4.57;;
2462;SDS011;1243;54.298;10.172;2023-07-29T00:14:07;4.73;;;4.23;;
2462;SDS011;1243;54.298;10.172;2023-07-29T00:16:33;4.97;;;4.57;;
2462;SDS011;1243;54.298;10.172;2023-07-29T00:18:59;3.83;;;3.43;;
2462;SDS011;1243;54.298;10.172;2023-07-29T00:21:24;5.83;;;4.67;;
2462;SDS011;1243;54.298;10.172;2023-07-29T00:23:50;29.37;;;5.63;;
2462;SDS011;1243;54.298;10.172;2023-07-29T00:26:16;5.60;;;4.23;;
2462;SDS011;1243;54.298;10.172;2023-07-29T00:28:42;4.87;;;3.83;;
2462;SDS011;1243;54.298;10.172;2023-07-29T00:31:08;5.00;;;3.83;;
2462;SDS011;1243;54.298;10.172;2023-07-29T00:33:33;4.90;;;4.40;;
2462;SDS011;1243;54.298;10.172;2023-07-29T00:35:59;4.23;;;3.83;;
2462;SDS011;1243;54.298;10.172;2023-07-29T00:38:28;4.80;;;4.17;;
2462;SDS011;1243;54.298;10.172;2023-07-29T00:40:53;6.73;;;3.80;;
2462;SDS011;1243;54.298;10.172;2023-07-29T00:43:20;5.13;;;4.03;;
2462;SDS011;1243;54.298;10.172;2023-07-29T00:45:46;8.73;;;4.77;;
2462;SDS011;1243;54.298;10.172;2023-07-29T00:48:12;6.70;;;4.83;;
2462;SDS011;1243;54.298;10.172;2023-07-29T00:50:38;9.50;;;5.60;;
2462;SDS011;1243;54.298;10.172;2023-07-29T00:53:04;6.63;;;5.77;;
2462;SDS011;1243;54.298;10.172;2023-07-29T00:55:31;7.10;;;6.50;;
2462;SDS011;1243;54.298;10.172;2023-07-29T00:57:57;8.77;;;6.10;;
2462;SDS011;1243;54.298;10.172;2023-07-29T01:00:22;6.00;;;5.40;;
2462;SDS011;1243;54.298;10.172;2023-07-29T01:02:49;5.70;;;5.20;;
2462;SDS011;1243;54.298;10.172;2023-07-29T01:05:16;6.33;;;4.53;;
2462;SDS011;1243;54.298;10.172;2023-07-29T01:10:27;6.60;;;5.80;;
2462;SDS011;1243;54.298;10.172;2023-07-29T01:13:02;6.50;;;4.97;;
2462;SDS011;1243;54.298;10.172;2023-07-29T01:15:54;5.80;;;5.20;;
2462;SDS011;1243;54.298;10.172;2023-07-29T01:18:27;5.63;;;5.03;;
2462;SDS011;1243;54.298;10.172;2023-07-29T01:20:58;8.20;;;5.30;;
2462;SDS011;1243;54.298;10.172;2023-07-29T01:23:31;4.87;;;4.47;;
2462;SDS011;1243;54.298;10.172;2023-07-29T01:25:57;6.13;;;5.60;;
2462;SDS011;1243;54.298;10.172;2023-07-29T01:28:23;5.60;;;5.00;;
2462;SDS011;1243;54.298;10.172;2023-07-29T01:30:50;6.03;;;4.83;;
2462;SDS011;1243;54.298;10.172;2023-07-29T01:33:29;4.67;;;4.23;;
2462;SDS011;1243;54.298;10.172;2023-07-29T01:36:03;8.10;;;5.20;;
2462;SDS011;1243;54.298;10.172;2023-07-29T01:38:36;5.50;;;4.40;;
2462;SDS011;1243;54.298;10.172;2023-07-29T01:41:04;5.30;;;4.60;;
2462;SDS011;1243;54.298;10.172;2023-07-29T01:43:32;5.87;;;4.57;;
2462;SDS011;1243;54.298;10.172;2023-07-29T01:45:59;4.67;;;4.27;;
2462;SDS011;1243;54.298;10.172;2023-07-29T01:48:26;6.63;;;5.50;;
2462;SDS011;1243;54.298;10.172;2023-07-29T01:50:53;7.77;;;6.00;;
2462;SDS011;1243;54.298;10.172;2023-07-29T01:53:19;7.13;;;5.83;;
2462;SDS011;1243;54.298;10.172;2023-07-29T01:55:45;11.53;;;6.60;;
2462;SDS011;1243;54.298;10.172;2023-07-29T01:58:10;6.40;;;5.80;;
2462;SDS011;1243;54.298;10.172;2023-07-29T02:00:36;7.63;;;5.87;;
2462;SDS011;1243;54.298;10.172;2023-07-29T02:03:02;8.07;;;6.57;;
2462;SDS011;1243;54.298;10.172;2023-07-29T02:05:28;8.67;;;5.70;;
2462;SDS011;1243;54.298;10.172;2023-07-29T02:07:54;10.97;;;6.00;;
2462;SDS011;1243;54.298;10.172;2023-07-29T02:10:20;11.57;;;5.67;;
2462;SDS011;1243;54.298;10.172;2023-07-29T02:12:45;6.17;;;5.53;;
2462;SDS011;1243;54.298;10.172;2023-07-29T02:15:11;5.77;;;4.80;;
2462;SDS011;1243;54.298;10.172;2023-07-29T02:17:37;7.03;;;5.60;;
2462;SDS011;1243;54.298;10.172;2023-07-29T02:20:03;5.77;;;4.87;;
2462;SDS011;1243;54.298;10.172;2023-07-29T02:22:29;6.93;;;6.20;;
2462;SDS011;1243;54.298;10.172;2023-07-29T02:24:55;6.27;;;5.70;;
2462;SDS011;1243;54.298;10.172;2023-07-29T02:27:21;10.80;;;6.90;;
2462;SDS011;1243;54.298;10.172;2023-07-29T02:29:46;7.60;;;5.57;;
2462;SDS011;1243;54.298;10.172;2023-07-29T02:32:12;13.33;;;6.90;;
2462;SDS011;1243;54.298;10.172;2023-07-29T02:34:38;6.83;;;6.00;;
2462;SDS011;1243;54.298;10.172;2023-07-29T02:37:04;8.20;;;5.60;;
2462;SDS011;1243;54.298;10.172;2023-07-29T02:39:30;6.80;;;5.83;;
2462;SDS011;1243;54.298;10.172;2023-07-29T02:41:56;8.67;;;6.63;;
2462;SDS011;1243;54.298;10.172;2023-07-29T02:44:23;7.30;;;6.60;;
2462;SDS011;1243;54.298;10.172;2023-07-29T02:46:49;9.97;;;7.40;;
2462;SDS011;1243;54.298;10.172;2023-07-29T02:49:17;6.30;;;5.50;;
2462;SDS011;1243;54.298;10.172;2023-07-29T02:51:42;12.50;;;5.27;;
2462;SDS011;1243;54.298;10.172;2023-07-29T02:54:08;5.53;;;5.03;;
2462;SDS011;1243;54.298;10.172;2023-07-29T02:56:35;7.83;;;6.40;;
2462;SDS011;1243;54.298;10.172;2023-07-29T02:59:01;8.10;;;6.73;;
2462;SDS011;1243;54.298;10.172;2023-07-29T03:01:26;9.20;;;5.90;;
2462;SDS011;1243;54.298;10.172;2023-07-29T03:03:52;7.47;;;6.13;;
2462;SDS011;1243;54.298;10.172;2023-07-29T03:06:18;7.20;;;5.63;;
2462;SDS011;1243;54.298;10.172;2023-07-29T03:08:44;9.23;;;5.87;;
2462;SDS011;1243;54.298;10.172;2023-07-29T03:11:11;18.23;;;7.33;;
2462;SDS011;1243;54.298;10.172;2023-07-29T03:13:38;10.17;;;7.23;;
2462;SDS011;1243;54.298;10.172;2023-07-29T03:16:05;10.60;;;7.13;;
2462;SDS011;1243;54.298;10.172;2023-07-29T03:18:37;12.37;;;7.30;;
2462;SDS011;1243;54.298;10.172;2023-07-29T03:21:04;9.83;;;7.13;;
2462;SDS011;1243;54.298;10.172;2023-07-29T03:23:30;9.50;;;6.70;;
2462;SDS011;1243;54.298;10.172;2023-07-29T03:25:57;8.70;;;5.87;;
2462;SDS011;1243;54.298;10.172;2023-07-29T03:28:25;7.50;;;5.50;;
2462;SDS011;1243;54.298;10.172;2023-07-29T03:30:52;10.23;;;6.80;;
2462;SDS011;1243;54.298;10.172;2023-07-29T03:33:18;12.07;;;7.27;;
2462;SDS011;1243;54.298;10.172;2023-07-29T03:35:44;11.17;;;7.30;;
2462;SDS011;1243;54.298;10.172;2023-07-29T03:38:10;8.73;;;6.27;;
2462;SDS011;1243;54.298;10.172;2023-07-29T03:40:37;9.13;;;7.10;;
2462;SDS011;1243;54.298;10.172;2023-07-29T03:43:03;10.13;;;7.30;;
2462;SDS011;1243;54.298;10.172;2023-07-29T03:45:29;9.53;;;6.30;;
2462;SDS011;1243;54.298;10.172;2023-07-29T03:47:55;7.97;;;5.40;;
2462;SDS011;1243;54.298;10.172;2023-07-29T03:50:21;13.13;;;5.63;;
2462;SDS011;1243;54.298;10.172;2023-07-29T03:52:47;8.37;;;6.57;;
2462;SDS011;1243;54.298;10.172;2023-07-29T03:55:12;7.23;;;6.17;;
2462;SDS011;1243;54.298;10.172;2023-07-29T03:57:38;8.77;;;5.93;;
2462;SDS011;1243;54.298;10.172;2023-07-29T04:00:04;13.10;;;9.07;;
2462;SDS011;1243;54.298;10.172;2023-07-29T04:02:31;11.93;;;8.33;;
2462;SDS011;1243;54.298;10.172;2023-07-29T04:04:56;19.30;;;9.43;;
2462;SDS011;1243;54.298;10.172;2023-07-29T04:07:22;15.80;;;8.00;;
2462;SDS011;1243;54.298;10.172;2023-07-29T04:09:48;12.93;;;8.83;;
2462;SDS011;1243;54.298;10.172;2023-07-29T04:12:14;12.40;;;7.30;;
2462;SDS011;1243;54.298;10.172;2023-07-29T04:14:40;11.90;;;8.43;;
2462;SDS011;1243;54.298;10.172;2023-07-29T04:17:06;13.00;;;8.47;;
2462;SDS011;1243;54.298;10.172;2023-07-29T04:19:32;11.77;;;8.57;;
2462;SDS011;1243;54.298;10.172;2023-07-29T04:21:58;14.77;;;9.33;;
2462;SDS011;1243;54.298;10.172;2023-07-29T04:24:24;13.83;;;10.40;;
2462;SDS011;1243;54.298;10.172;2023-07-29T04:26:50;12.50;;;9.50;;
2462;SDS011;1243;54.298;10.172;2023-07-29T04:29:16;11.73;;;8.07;;
2462;SDS011;1243;54.298;10.172;2023-07-29T04:31:42;16.10;;;9.50;;
2462;SDS011;1243;54.298;10.172;2023-07-29T04:34:07;12.60;;;8.27;;
2462;SDS011;1243;54.298;10.172;2023-07-29T04:36:34;18.97;;;9.63;;
2462;SDS011;1243;54.298;10.172;2023-07-29T04:39:00;26.43;;;10.43;;
2462;SDS011;1243;54.298;10.172;2023-07-29T04:41:25;16.80;;;9.17;;
2462;SDS011;1243;54.298;10.172;2023-07-29T04:43:51;15.70;;;9.97;;
2462;SDS011;1243;54.298;10.172;2023-07-29T04:46:17;17.80;;;10.27;;
2462;SDS011;1243;54.298;10.172;2023-07-29T04:48:43;11.77;;;8.73;;
2462;SDS011;1243;54.298;10.172;2023-07-29T04:51:09;10.77;;;8.57;;
2462;SDS011;1243;54.298;10.172;2023-07-29T04:53:34;10.73;;;8.30;;
2462;SDS011;1243;54.298;10.172;2023-07-29T04:56:02;11.07;;;8.60;;
2462;SDS011;1243;54.298;10.172;2023-07-29T04:58:27;14.63;;;8.13;;
2462;SDS011;1243;54.298;10.172;2023-07-29T05:00:54;9.83;;;7.90;;
2462;SDS011;1243;54.298;10.172;2023-07-29T05:03:21;11.03;;;8.37;;
2462;SDS011;1243;54.298;10.172;2023-07-29T05:05:46;14.77;;;9.23;;
2462;SDS011;1243;54.298;10.172;2023-07-29T05:08:12;12.53;;;8.37;;
2462;SDS011;1243;54.298;10.172;2023-07-29T05:10:38;11.20;;;7.90;;
2462;SDS011;1243;54.298;10.172;2023-07-29T05:13:03;11.20;;;8.93;;
2462;SDS011;1243;54.298;10.172;2023-07-29T05:15:29;10.90;;;8.50;;
2462;SDS011;1243;54.298;10.172;2023-07-29T05:17:55;11.40;;;8.43;;
2462;SDS011;1243;54.298;10.172;2023-07-29T05:20:21;16.67;;;9.33;;
2462;SDS011;1243;54.298;10.172;2023-07-29T05:22:47;12.10;;;7.93;;
2462;SDS011;1243;54.298;10.172;2023-07-29T05:25:12;10.50;;;8.47;;
2462;SDS011;1243;54.298;10.172;2023-07-29T05:27:38;13.73;;;9.17;;
2462;SDS011;1243;54.298;10.172;2023-07-29T05:30:04;11.13;;;8.77;;
2462;SDS011;1243;54.298;10.172;2023-07-29T05:32:31;8.70;;;7.60;;
2462;SDS011;1243;54.298;10.172;2023-07-29T05:34:57;10.40;;;8.60;;
2462;SDS011;1243;54.298;10.172;2023-07-29T05:37:22;10.40;;;8.10;;
2462;SDS011;1243;54.298;10.172;2023-07-29T05:39:48;9.40;;;7.87;;
2462;SDS011;1243;54.298;10.172;2023-07-29T05:42:14;8.67;;;7.60;;
2462;SDS011;1243;54.298;10.172;2023-07-29T05:44:39;8.20;;;7.20;;
2462;SDS011;1243;54.298;10.172;2023-07-29T05:47:05;7.60;;;6.83;;
2462;SDS011;1243;54.298;10.172;2023-07-29T05:49:31;7.60;;;6.70;;
2462;SDS011;1243;54.298;10.172;2023-07-29T05:51:57;8.07;;;7.27;;
2462;SDS011;1243;54.298;10.172;2023-07-29T05:54:23;7.57;;;6.83;;
2462;SDS011;1243;54.298;10.172;2023-07-29T05:56:48;8.57;;;6.50;;
2462;SDS011;1243;54.298;10.172;2023-07-29T05:59:14;7.57;;;6.63;;
2462;SDS011;1243;54.298;10.172;2023-07-29T06:01:40;11.63;;;6.77;;
2462;SDS011;1243;54.298;10.172;2023-07-29T06:04:05;6.60;;;6.00;;
2462;SDS011;1243;54.298;10.172;2023-07-29T06:06:31;7.67;;;6.30;;
2462;SDS011;1243;54.298;10.172;2023-07-29T06:08:57;7.10;;;6.40;;
2462;SDS011;1243;54.298;10.172;2023-07-29T06:11:23;7.30;;;6.57;;
2462;SDS011;1243;54.298;10.172;2023-07-29T06:13:49;6.50;;;5.90;;
2462;SDS011;1243;54.298;10.172;2023-07-29T06:16:14;5.97;;;5.30;;
2462;SDS011;1243;54.298;10.172;2023-07-29T06:18:40;6.30;;;5.70;;
2462;SDS011;1243;54.298;10.172;2023-07-29T06:21:06;7.37;;;6.30;;
2462;SDS011;1243;54.298;10.172;2023-07-29T06:23:33;5.70;;;5.20;;
2462;SDS011;1243;54.298;10.172;2023-07-29T06:25:59;6.07;;;5.47;;
2462;SDS011;1243;54.298;10.172;2023-07-29T06:28:25;6.63;;;6.13;;
2462;SDS011;1243;54.298;10.172;2023-07-29T06:30:52;6.97;;;5.77;;
2462;SDS011;1243;54.298;10.172;2023-07-29T06:33:18;7.40;;;6.23;;
2462;SDS011;1243;54.298;10.172;2023-07-29T06:35:43;7.67;;;6.53;;
2462;SDS011;1243;54.298;10.172;2023-07-29T06:38:09;6.73;;;6.13;;
2462;SDS011;1243;54.298;10.172;2023-07-29T06:40:35;9.63;;;8.50;;
2462;SDS011;1243;54.298;10.172;2023-07-29T06:43:01;11.03;;;8.90;;
2462;SDS011;1243;54.298;10.172;2023-07-29T06:45:26;11.33;;;8.80;;
2462;SDS011;1243;54.298;10.172;2023-07-29T06:47:52;11.30;;;9.87;;
2462;SDS011;1243;54.298;10.172;2023-07-29T06:50:18;15.97;;;10.90;;
2462;SDS011;1243;54.298;10.172;2023-07-29T06:52:44;11.60;;;10.40;;
2462;SDS011;1243;54.298;10.172;2023-07-29T06:55:10;12.30;;;10.90;;
2462;SDS011;1243;54.298;10.172;2023-07-29T06:57:36;12.60;;;11.40;;
2462;SDS011;1243;54.298;10.172;2023-07-29T07:00:02;11.50;;;10.10;;
2462;SDS011;1243;54.298;10.172;2023-07-29T07:02:28;16.63;;;11.47;;
2462;SDS011;1243;54.298;10.172;2023-07-29T07:04:54;15.07;;;12.57;;
2462;SDS011;1243;54.298;10.172;2023-07-29T07:07:19;14.40;;;11.90;;
2462;SDS011;1243;54.298;10.172;2023-07-29T07:09:45;14.17;;;12.10;;
2462;SDS011;1243;54.298;10.172;2023-07-29T07:12:11;15.07;;;12.70;;
2462;SDS011;1243;54.298;10.172;2023-07-29T07:14:37;14.23;;;12.40;;
2462;SDS011;1243;54.298;10.172;2023-07-29T07:17:03;13.87;;;12.47;;
2462;SDS011;1243;54.298;10.172;2023-07-29T07:19:29;14.60;;;13.00;;
2462;SDS011;1243;54.298;10.172;2023-07-29T07:21:54;15.73;;;13.30;;
2462;SDS011;1243;54.298;10.172;2023-07-29T07:24:20;15.97;;;14.00;;
2462;SDS011;1243;54.298;10.172;2023-07-29T07:26:47;15.63;;;13.40;;
2462;SDS011;1243;54.298;10.172;2023-07-29T07:29:13;15.77;;;13.13;;
2462;SDS011;1243;54.298;10.172;2023-07-29T07:31:39;17.50;;;13.10;;
2462;SDS011;1243;54.298;10.172;2023-07-29T07:34:05;15.77;;;13.27;;
2462;SDS011;1243;54.298;10.172;2023-07-29T07:36:31;17.70;;;13.27;;
2462;SDS011;1243;54.298;10.172;2023-07-29T07:38:56;17.60;;;13.60;;
2462;SDS011;1243;54.298;10.172;2023-07-29T07:41:22;16.17;;;13.17;;
2462;SDS011;1243;54.298;10.172;2023-07-29T07:43:49;16.13;;;14.00;;
2462;SDS011;1243;54.298;10.172;2023-07-29T07:46:15;14.40;;;12.90;;
2462;SDS011;1243;54.298;10.172;2023-07-29T07:48:41;13.63;;;12.23;;
2462;SDS011;1243;54.298;10.172;2023-07-29T07:51:13;17.70;;;12.90;;
2462;SDS011;1243;54.298;10.172;2023-07-29T07:53:39;14.37;;;12.07;;
2462;SDS011;1243;54.298;10.172;2023-07-29T07:56:05;15.10;;;12.47;;
2462;SDS011;1243;54.298;10.172;2023-07-29T07:58:32;12.43;;;11.13;;
2462;SDS011;1243;54.298;10.172;2023-07-29T08:01:04;13.80;;;11.83;;
2462;SDS011;1243;54.298;10.172;2023-07-29T08:03:32;12.43;;;11.13;;
2462;SDS011;1243;54.298;10.172;2023-07-29T08:05:58;11.47;;;10.30;;
2462;SDS011;1243;54.298;10.172;2023-07-29T08:08:24;10.83;;;8.90;;
2462;SDS011;1243;54.298;10.172;2023-07-29T08:10:52;12.80;;;10.67;;
2462;SDS011;1243;54.298;10.172;2023-07-29T08:13:19;12.97;;;11.67;;
2462;SDS011;1243;54.298;10.172;2023-07-29T08:15:46;11.33;;;10.20;;
2462;SDS011;1243;54.298;10.172;2023-07-29T08:18:13;10.90;;;9.70;;
2462;SDS011;1243;54.298;10.172;2023-07-29T08:20:38;13.53;;;10.70;;
2462;SDS011;1243;54.298;10.172;2023-07-29T08:23:04;12.27;;;10.60;;
2462;SDS011;1243;54.298;10.172;2023-07-29T08:25:30;10.53;;;9.47;;
2462;SDS011;1243;54.298;10.172;2023-07-29T08:27:56;13.87;;;9.27;;
2462;SDS011;1243;54.298;10.172;2023-07-29T08:30:22;10.53;;;9.00;;
2462;SDS011;1243;54.298;10.172;2023-07-29T08:32:47;12.10;;;10.80;;
2462;SDS011;1243;54.298;10.172;2023-07-29T08:35:13;12.17;;;10.87;;
2462;SDS011;1243;54.298;10.172;2023-07-29T08:37:39;9.50;;;8.50;;
2462;SDS011;1243;54.298;10.172;2023-07-29T08:40:05;10.73;;;9.63;;
2462;SDS011;1243;54.298;10.172;2023-07-29T08:42:32;9.83;;;8.80;;
2462;SDS011;1243;54.298;10.172;2023-07-29T08:45:06;9.70;;;8.80;;
2462;SDS011;1243;54.298;10.172;2023-07-29T08:47:36;9.30;;;8.40;;
2462;SDS011;1243;54.298;10.172;2023-07-29T08:50:02;10.13;;;8.77;;
2462;SDS011;1243;54.298;10.172;2023-07-29T08:52:29;10.17;;;8.90;;
2462;SDS011;1243;54.298;10.172;2023-07-29T08:54:57;9.90;;;8.90;;
2462;SDS011;1243;54.298;10.172;2023-07-29T08:57:23;10.53;;;9.57;;
2462;SDS011;1243;54.298;10.172;2023-07-29T08:59:51;10.53;;;8.60;;
2462;SDS011;1243;54.298;10.172;2023-07-29T09:02:17;11.83;;;8.93;;
2462;SDS011;1243;54.298;10.172;2023-07-29T09:04:43;11.07;;;7.70;;
2462;SDS011;1243;54.298;10.172;2023-07-29T09:07:10;8.70;;;7.77;;
2462;SDS011;1243;54.298;10.172;2023-07-29T09:09:36;9.50;;;8.40;;
2462;SDS011;1243;54.298;10.172;2023-07-29T09:12:02;12.17;;;8.80;;
2462;SDS011;1243;54.298;10.172;2023-07-29T09:14:28;10.30;;;8.03;;
2462;SDS011;1243;54.298;10.172;2023-07-29T09:16:54;10.03;;;8.30;;
2462;SDS011;1243;54.298;10.172;2023-07-29T09:19:21;10.27;;;7.37;;
2462;SDS011;1243;54.298;10.172;2023-07-29T09:21:51;8.33;;;7.20;;
2462;SDS011;1243;54.298;10.172;2023-07-29T09:24:17;8.67;;;7.07;;
2462;SDS011;1243;54.298;10.172;2023-07-29T09:26:49;8.93;;;8.13;;
2462;SDS011;1243;54.298;10.172;2023-07-29T09:29:15;8.70;;;6.50;;
2462;SDS011;1243;54.298;10.172;2023-07-29T09:31:46;10.47;;;6.40;;
2462;SDS011;1243;54.298;10.172;2023-07-29T09:34:12;7.13;;;6.43;;
2462;SDS011;1243;54.298;10.172;2023-07-29T09:36:42;6.67;;;6.07;;
2462;SDS011;1243;54.298;10.172;2023-07-29T09:39:10;9.27;;;7.50;;
2462;SDS011;1243;54.298;10.172;2023-07-29T09:41:38;6.57;;;5.93;;
2462;SDS011;1243;54.298;10.172;2023-07-29T09:44:04;6.00;;;5.43;;
2462;SDS011;1243;54.298;10.172;2023-07-29T09:46:36;5.50;;;5.00;;
2462;SDS011;1243;54.298;10.172;2023-07-29T09:49:04;5.70;;;5.20;;
2462;SDS011;1243;54.298;10.172;2023-07-29T09:51:31;6.10;;;5.60;;
2462;SDS011;1243;54.298;10.172;2023-07-29T09:53:57;6.00;;;5.40;;
2462;SDS011;1243;54.298;10.172;2023-07-29T09:56:27;5.60;;;5.10;;
2462;SDS011;1243;54.298;10.172;2023-07-29T09:58:54;6.30;;;5.50;;
2462;SDS011;1243;54.298;10.172;2023-07-29T10:01:22;8.53;;;5.67;;
2462;SDS011;1243;54.298;10.172;2023-07-29T10:03:48;6.30;;;5.47;;
2462;SDS011;1243;54.298;10.172;2023-07-29T10:06:14;6.00;;;5.50;;
2462;SDS011;1243;54.298;10.172;2023-07-29T10:08:40;6.70;;;6.10;;
2462;SDS011;1243;54.298;10.172;2023-07-29T10:11:08;5.90;;;5.40;;
2462;SDS011;1243;54.298;10.172;2023-07-29T10:13:36;5.40;;;4.90;;
2462;SDS011;1243;54.298;10.172;2023-07-29T10:16:03;4.60;;;4.30;;
2462;SDS011;1243;54.298;10.172;2023-07-29T10:18:30;7.10;;;4.10;;
2462;SDS011;1243;54.298;10.172;2023-07-29T10:20:57;4.70;;;4.07;;
2462;SDS011;1243;54.298;10.172;2023-07-29T10:23:25;5.20;;;4.70;;
2462;SDS011;1243;54.298;10.172;2023-07-29T10:26:05;6.33;;;4.80;;
2462;SDS011;1243;54.298;10.172;2023-07-29T10:28:34;5.03;;;4.33;;
2462;SDS011;1243;54.298;10.172;2023-07-29T10:31:05;5.87;;;5.37;;
2462;SDS011;1243;54.298;10.172;2023-07-29T10:33:31;4.77;;;4.37;;
2462;SDS011;1243;54.298;10.172;2023-07-29T10:35:59;9.90;;;3.90;;
2462;SDS011;1243;54.298;10.172;2023-07-29T10:38:25;4.90;;;4.50;;
2462;SDS011;1243;54.298;10.172;2023-07-29T10:40:52;4.10;;;3.77;;
2462;SDS011;1243;54.298;10.172;2023-07-29T10:46:17;4.20;;;3.90;;
2462;SDS011;1243;54.298;10.172;2023-07-29T10:51:22;4.13;;;3.63;;
2462;SDS011;1243;54.298;10.172;2023-07-29T10:53:55;3.97;;;3.57;;
2462;SDS011;1243;54.298;10.172;2023-07-29T10:58:55;4.47;;;3.60;;
2462;SDS011;1243;54.298;10.172;2023-07-29T11:01:29;2.70;;;2.50;;
2462;SDS011;1243;54.298;10.172;2023-07-29T11:10:01;2.70;;;2.50;;
2462;SDS011;1243;54.298;10.172;2023-07-29T11:12:37;2.30;;;2.20;;
2462;SDS011;1243;54.298;10.172;2023-07-29T11:17:38;1.97;;;1.87;;
2462;SDS011;1243;54.298;10.172;2023-07-29T11:20:08;2.90;;;2.27;;
2462;SDS011;1243;54.298;10.172;2023-07-29T11:22:35;2.70;;;2.50;;
2462;SDS011;1243;54.298;10.172;2023-07-29T11:25:01;3.33;;;2.37;;
2462;SDS011;1243;54.298;10.172;2023-07-29T11:27:27;2.70;;;2.50;;
2462;SDS011;1243;54.298;10.172;2023-07-29T11:29:59;2.73;;;2.40;;
2462;SDS011;1243;54.298;10.172;2023-07-29T11:32:27;2.57;;;2.37;;
2462;SDS011;1243;54.298;10.172;2023-07-29T11:34:53;2.70;;;2.60;;
2462;SDS011;1243;54.298;10.172;2023-07-29T11:37:18;2.43;;;2.23;;
2462;SDS011;1243;54.298;10.172;2023-07-29T11:39:46;2.63;;;2.40;;
2462;SDS011;1243;54.298;10.172;2023-07-29T11:42:12;2.87;;;2.10;;
2462;SDS011;1243;54.298;10.172;2023-07-29T11:44:38;4.37;;;2.07;;
2462;SDS011;1243;54.298;10.172;2023-07-29T11:47:10;3.03;;;2.40;;
2462;SDS011;1243;54.298;10.172;2023-07-29T11:49:40;2.50;;;2.30;;
2462;SDS011;1243;54.298;10.172;2023-07-29T11:52:09;1.97;;;1.87;;
2462;SDS011;1243;54.298;10.172;2023-07-29T11:54:38;2.00;;;1.90;;
2462;SDS011;1243;54.298;10.172;2023-07-29T11:57:08;2.30;;;2.10;;
2462;SDS011;1243;54.298;10.172;2023-07-29T11:59:34;2.17;;;1.83;;
2462;SDS011;1243;54.298;10.172;2023-07-29T12:02:03;1.70;;;1.60;;
2462;SDS011;1243;54.298;10.172;2023-07-29T12:04:32;3.50;;;1.77;;
2462;SDS011;1243;54.298;10.172;2023-07-29T12:06:59;1.40;;;1.30;;
2462;SDS011;1243;54.298;10.172;2023-07-29T12:09:25;2.20;;;2.10;;
2462;SDS011;1243;54.298;10.172;2023-07-29T12:11:52;2.13;;;1.47;;
2462;SDS011;1243;54.298;10.172;2023-07-29T12:14:18;2.97;;;2.00;;
2462;SDS011;1243;54.298;10.172;2023-07-29T12:16:44;4.00;;;1.87;;
2462;SDS011;1243;54.298;10.172;2023-07-29T12:19:13;2.93;;;2.17;;
2462;SDS011;1243;54.298;10.172;2023-07-29T12:21:43;2.30;;;2.20;;
2462;SDS011;1243;54.298;10.172;2023-07-29T12:24:09;1.83;;;1.63;;
2462;SDS011;1243;54.298;10.172;2023-07-29T12:26:39;2.90;;;1.80;;
2462;SDS011;1243;54.298;10.172;2023-07-29T12:29:17;2.13;;;1.93;;
2462;SDS011;1243;54.298;10.172;2023-07-29T12:31:45;7.03;;;1.60;;
2462;SDS011;1243;54.298;10.172;2023-07-29T12:34:20;3.77;;;1.40;;
2462;SDS011;1243;54.298;10.172;2023-07-29T12:36:47;1.60;;;1.50;;
2462;SDS011;1243;54.298;10.172;2023-07-29T12:39:20;2.40;;;1.67;;
2462;SDS011;1243;54.298;10.172;2023-07-29T12:41:49;2.00;;;1.80;;
2462;SDS011;1243;54.298;10.172;2023-07-29T12:44:16;2.00;;;1.90;;
2462;SDS011;1243;54.298;10.172;2023-07-29T12:46:42;1.77;;;1.67;;
2462;SDS011;1243;54.298;10.172;2023-07-29T12:49:08;1.90;;;1.50;;
2462;SDS011;1243;54.298;10.172;2023-07-29T12:51:33;2.87;;;1.60;;
2462;SDS011;1243;54.298;10.172;2023-07-29T12:53:59;2.00;;;1.90;;
2462;SDS011;1243;54.298;10.172;2023-07-29T12:56:26;1.63;;;1.53;;
2462;SDS011;1243;54.298;10.172;2023-07-29T12:58:51;2.07;;;1.97;;
2462;SDS011;1243;54.298;10.172;2023-07-29T13:01:17;3.50;;;1.87;;
2462;SDS011;1243;54.298;10.172;2023-07-29T13:03:47;3.73;;;2.07;;
2462;SDS011;1243;54.298;10.172;2023-07-29T13:06:13;1.73;;;1.63;;
2462;SDS011;1243;54.298;10.172;2023-07-29T13:08:40;1.80;;;1.70;;
2462;SDS011;1243;54.298;10.172;2023-07-29T13:11:06;6.07;;;2.07;;
2462;SDS011;1243;54.298;10.172;2023-07-29T13:13:32;3.57;;;2.07;;
2462;SDS011;1243;54.298;10.172;2023-07-29T13:15:58;2.00;;;1.77;;
2462;SDS011;1243;54.298;10.172;2023-07-29T13:18:24;2.30;;;2.10;;
2462;SDS011;1243;54.298;10.172;2023-07-29T13:20:50;3.50;;;2.27;;
2462;SDS011;1243;54.298;10.172;2023-07-29T13:23:15;3.50;;;2.17;;
2462;SDS011;1243;54.298;10.172;2023-07-29T13:25:41;2.00;;;1.80;;
2462;SDS011;1243;54.298;10.172;2023-07-29T13:28:09;2.83;;;2.63;;
2462;SDS011;1243;54.298;10.172;2023-07-29T13:30:35;3.00;;;2.80;;
2462;SDS011;1243;54.298;10.172;2023-07-29T13:33:01;3.50;;;2.53;;
2462;SDS011;1243;54.298;10.172;2023-07-29T13:35:28;2.93;;;2.70;;
2462;SDS011;1243;54.298;10.172;2023-07-29T13:37:55;3.03;;;2.83;;
2462;SDS011;1243;54.298;10.172;2023-07-29T13:40:21;3.23;;;3.03;;
2462;SDS011;1243;54.298;10.172;2023-07-29T13:42:47;3.33;;;3.13;;
2462;SDS011;1243;54.298;10.172;2023-07-29T13:45:12;3.20;;;3.00;;
2462;SDS011;1243;54.298;10.172;2023-07-29T13:47:38;2.80;;;2.60;;
2462;SDS011;1243;54.298;10.172;2023-07-29T13:50:04;3.30;;;3.00;;
2462;SDS011;1243;54.298;10.172;2023-07-29T13:52:32;3.90;;;3.10;;
2462;SDS011;1243;54.298;10.172;2023-07-29T13:54:58;2.73;;;2.53;;
2462;SDS011;1243;54.298;10.172;2023-07-29T13:57:23;1.90;;;1.80;;
2462;SDS011;1243;54.298;10.172;2023-07-29T13:59:49;2.07;;;1.97;;
2462;SDS011;1243;54.298;10.172;2023-07-29T14:02:15;2.37;;;2.17;;
2462;SDS011;1243;54.298;10.172;2023-07-29T14:04:41;2.37;;;2.13;;
2462;SDS011;1243;54.298;10.172;2023-07-29T14:07:06;2.20;;;1.93;;
2462;SDS011;1243;54.298;10.172;2023-07-29T14:09:32;2.57;;;1.90;;
2462;SDS011;1243;54.298;10.172;2023-07-29T14:11:58;2.07;;;1.97;;
2462;SDS011;1243;54.298;10.172;2023-07-29T14:14:23;2.43;;;2.23;;
2462;SDS011;1243;54.298;10.172;2023-07-29T14:16:49;2.30;;;1.83;;
2462;SDS011;1243;54.298;10.172;2023-07-29T14:19:15;3.83;;;2.00;;
2462;SDS011;1243;54.298;10.172;2023-07-29T14:21:40;3.40;;;2.67;;
2462;SDS011;1243;54.298;10.172;2023-07-29T14:24:06;2.73;;;2.23;;
2462;SDS011;1243;54.298;10.172;2023-07-29T14:26:32;2.20;;;2.10;;
2462;SDS011;1243;54.298;10.172;2023-07-29T14:28:57;3.20;;;1.83;;
2462;SDS011;1243;54.298;10.172;2023-07-29T14:31:23;2.40;;;2.20;;
2462;SDS011;1243;54.298;10.172;2023-07-29T14:33:49;3.60;;;2.03;;
2462;SDS011;1243;54.298;10.172;2023-07-29T14:36:15;2.13;;;1.80;;
2462;SDS011;1243;54.298;10.172;2023-07-29T14:38:41;2.27;;;2.10;;
2462;SDS011;1243;54.298;10.172;2023-07-29T14:41:07;2.67;;;2.47;;
2462;SDS011;1243;54.298;10.172;2023-07-29T14:43:33;5.80;;;2.10;;
2462;SDS011;1243;54.298;10.172;2023-07-29T14:45:59;3.70;;;2.33;;
2462;SDS011;1243;54.298;10.172;2023-07-29T14:48:25;3.30;;;2.47;;
2462;SDS011;1243;54.298;10.172;2023-07-29T14:50:51;8.90;;;3.07;;
2462;SDS011;1243;54.298;10.172;2023-07-29T14:53:17;6.70;;;2.10;;
2462;SDS011;1243;54.298;10.172;2023-07-29T14:55:42;6.20;;;1.87;;
2462;SDS011;1243;54.298;10.172;2023-07-29T14:58:08;3.47;;;2.33;;
2462;SDS011;1243;54.298;10.172;2023-07-29T15:00:34;2.70;;;1.57;;
2462;SDS011;1243;54.298;10.172;2023-07-29T15:03:00;3.83;;;1.77;;
2462;SDS011;1243;54.298;10.172;2023-07-29T15:05:25;2.57;;;2.37;;
2462;SDS011;1243;54.298;10.172;2023-07-29T15:07:51;2.27;;;1.93;;
2462;SDS011;1243;54.298;10.172;2023-07-29T15:10:17;2.47;;;2.27;;
2462;SDS011;1243;54.298;10.172;2023-07-29T15:12:43;2.27;;;2.07;;